Search :
Type the text to search here and press Enter.
Separate search terms by a space; they will all be searched individually in all fields of the database.

Click on Search : to go to the advanced search page.
Mkt: Check this box if you want
to search in classified
instead of the database.

Strategy & Tactics Magazine

A Wargaming Magazine published by Decision Games

JavaScript is disabled in your browser. This page will not work properly.

Editor:
Complexity:
Publisher:
Series:
Game Tags:
Edition:
Total items in database: 345. Total items on page 126.

Market Information: C = Classified Ad, H = Historical Data Available, E = Available for purchase Online, I: Collector Valuation Available.

Inventory Check: for user: 0

ImageURL Edition Issue Title Publisher PubDate Game Name MSRP Price ID
Game 20 Bastogne Strategic Publications Inc. 1970-02-01 Bastogne/Anzio Beachhead H:$58.55 I:$109.09 26071
Game 23 USSR Strategic Publications Inc. 1970-10-01 T-34 $2.50 H:$51.44 I:$54.98 26074
Game 24 Battle of Moscow Strategic Publications Inc. 1970-12-01 Battle of Moscow $2.50 H:$36.33 I:$36.33 26075
Game 25 The Roman Army Strategic Publications Inc. 1971-02-01 Centurion $2.50 H:$15.62 26076
Game 26 Grunt Strategic Publications Inc. 1971-04-01 Grunt $2.50 E:$44.50 H:$31.39 I:$27.73 26077
Game 27 France 1940 Strategic Publications Inc. 1971-06-01 The Fall of France, 1940 E:$215.00 H:$47.19 26078
Game 29 USN Strategic Publications Inc. 1971-10-01 USN $3.00 H:$25.77 I:$10.49 26080
Game 30 American Army Strategic Publications Inc. 1972-01-01 Combat Command $3.00 E:$5.00 H:$12.35 I:$10.54 26081
Game 32 Napoleon at War Strategic Publications Inc. 1972-05-01 Borodino $3.00 H:$26.09 I:$36.00 26101
Game 33 Winter War Strategic Publications Inc. 1972-07-01 Winter War E:$52.00 H:$34.47 I:$29.65 26102
Game 35 Year of the Rat Strategic Publications Inc. 1972-11-01 Year of the Rat E:$4.99 H:$30.99 I:$25.57 26104
Game 38 CA Strategic Publications Inc. 1973-05-01 CA E:$28.00 H:$14.37 I:$14.18 26107
Game 42 The East is Red Strategic Publications Inc. 1974-02-01 The East is Red E:$8.99 H:$14.17 I:$15.89 26111
Game 43 The American Civil War Strategic Publications Inc. 1974-04-01 American Civil War E:$28.50 H:$12.95 I:$11.62 26112
Game 44 Tank! Strategic Publications Inc. 1974-06-01 Tank! E:$12.00 H:$12.45 I:$13.15 26113
Game 48 Sixth Fleet Strategic Publications Inc. 1975-02-01 Sixth Fleet E:$15.50 H:$15.54 I:$13.08 26117
Game 49 Frederick the Great Strategic Publications Inc. 1975-04-01 Frederick the Great E:$4.94 H:$13.07 I:$11.75 26118
Game 50 Battle for Germany Strategic Publications Inc. 1975-06-01 Battle for Germany E:$42.00 H:$22.82 I:$23.40 26119
Game 51 World War I Strategic Publications Inc. 1975-08-01 World War I E:$25.00 H:$15.95 I:$14.29 26120
Game 58 Conquistador Strategic Publications Inc. 1976-10-01 Conquistador E:$9.99 H:$12.23 I:$25.00 26127
Game 70 The Crusades Strategic Publications Inc. 1978-10-01 The Crusades E:$24.99 H:$21.44 I:$20.17 26140
78 Patton's 3rd Army Strategic Publications Inc. 1980-02-01 Patton's 3rd Army E:$9.99 H:$12.24 I:$12.05 26148
Game 84 Operation Grenade Strategic Publications Inc. 1981-02-01 Operation Grenade E:$4.95 H:$12.48 I:$12.98 26154
Game 89 Sicily Strategic Publications Inc. 1981-12-01 Sicily: The Race for Messina E:$9.00 H:$15.89 I:$14.71 26159
106 The Battle of Pleasant Hill TSR 1986-05-01 The Battle of Pleasant Hill E:$34.00 H:$15.32 I:$13.99 26193
Game 118 The Tigers Are Burning 3W 1988-04-01 The Tigers Are Burning E:$14.00 H:$9.60 I:$10.31 26205
Game 120 Nicaragua! 3W 1988-08-01 Nicaragua! E:$4.99 H:$11.99 I:$10.49 26207
Game 121 The Indian Mutiny 3W 1988-10-01 The Indian Mutiny E:$8.00 H:$8.84 I:$8.92 26216
Game 123 Campaigns in the Valley 3W 1988-12-01 Campaigns in the Valley E:$12.00 H:$8.87 I:$9.21 26218
Game 124 Fortress Stalingrad 3W 1988-12-01 Fortress Stalingrad E:$20.00 H:$10.82 I:$11.28 26219
Game 125 Far Seas 3W 1989-03-01 Far Seas E:$22.00 H:$19.09 I:$16.07 26220
Game 134 Anzio Beachhead 3W 1990-06-01 Anzio Beachhead E:$4.99 H:$12.86 26229
Game 148 Cropredy Bridge Decision Games 1992-01-01 Cropredy Bridge E:$8.99 H:$7.88 I:$8.24 26249
162 Clontarf and Saipan Decision Games 1993-08-01 Clontarf/Saipan E:$11.00 H:$13.12 I:$13.47 26263
Game 182 The Balkans Campaign of 1941 Decision Games 1996-10-01 Balkans 1941 E:$40.00 H:$19.00 I:$19.00 26294
Game 204 Austria-Hungary - Summer Offensive 1918 Decision Games 2000-08-01 Twilight of the Hapsburgs H:$16.21 I:$15.16 26316
Game 205 The Second Boer War Decision Games 2000-10-01 The Second Boer War E:$12.99 H:$22.83 I:$22.17 26317
Game 206 The Forgotten Axis Decision Games 2000-12-01 The Romanian Campaign H:$11.17 26318
207 War of 1812 Decision Games 2001-02-01 War of 1812 E:$44.00 H:$21.68 I:$21.32 26319
208 Back to Iraq? Decision Games 2001-12-01 Back to Iraq E:$14.99 H:$14.86 I:$12.38 26320
Game 209 Indochina War Decision Games 2002-02-01 Indochina H:$37.24 I:$40.09 26321
Game 210 Belisarius Decision Games 2002-04-01 Belisarius E:$9.00 H:$44.56 I:$50.50 26322
Game 212 Rough & Ready Decision Games 2002-09-01 Rough and Ready E:$14.00 H:$13.76 I:$14.39 26324
213 Patton: Master of War Decision Games 2002-12-01 Spanish Civil War Battles $19.99 E:$19.95 H:$14.58 I:$16.12 26325
Game 214 The Ancient Battles Decision Games 2003-02-01 Marathon/Granicus $19.99 E:$24.00 H:$13.62 I:$10.53 26326
Game 216 The Great Game Decision Games 2003-06-01 Asia Crossroads $21.99 E:$15.00 H:$12.47 I:$13.01 26328
Game 220 Soviets Invade Germany! Decision Games 2004-02-01 Group of Soviet Forces in Germany $21.99 E:$9.00 H:$20.63 I:$22.79 26332
221 The Seven Years World War Decision Games 2004-04-01 Seven Years War $21.99 E:$12.95 H:$17.92 I:$11.89 26431
222 The Ottomans Decision Games 2004-06-01 The Ottomans E:$8.00 H:$16.98 I:$17.38 26432
Game 223 1918 Decision Games 2004-08-01 1918 $21.99 H:$16.65 I:$17.08 26433
224 The Sedan Campaign, 1870 Decision Games 2004-10-01 The Sedan Campaign $21.99 E:$15.00 H:$12.60 I:$15.93 26434
Game 225 Greatest Tank Battle Decision Games 2004-12-01 Twilight's Last Gleaming Part 2 $21.99 E:$24.95 H:$10.91 I:$12.72 26435
226 Middle East Battles Decision Games 2005-02-01 Battles of Suez and El Arish $21.99 E:$4.99 H:$12.51 I:$13.71 26436
Game 227 China-Burma-India Decision Games 2005-04-01 Vinegar Joe's War $21.99 E:$25.30 H:$17.62 I:$15.00 26437
Game 228 The Old Contemptibles Decision Games 2005-06-01 The Old Contemptibles $21.99 E:$4.99 H:$15.14 I:$16.01 26438
Game 229 Khan Decision Games 2005-08-01 Khan $22.99 E:$30.00 H:$29.61 26439
231 The French & Indian War Decision Games 2005-12-01 French and Indian War $22.99 E:$30.00 H:$17.12 I:$15.01 26441
Game 235 The Cold War Decision Games 2006-06-01 Cold War Battles $22.99 E:$30.00 H:$20.82 I:$15.75 26445
237 Lawrence of Arabia Decision Games 2006-08-01 No Prisoners $22.99 E:$34.04 H:$14.91 I:$15.27 26447
Game 238 Marlborough Decision Games 2006-09-01 Marlborough E:$19.99 H:$18.52 I:$19.97 26448
Game 239 Winged Horse Decision Games 2006-11-01 Winged Horse $22.99 E:$39.95 H:$19.31 I:$22.50 26449
Game 240 1066 Decision Games 2007-01-01 1066: End of the Dark Ages E:$12.95 H:$15.03 I:$13.72 26450
Game 241 Ottoman Twilight Decision Games 2007-03-01 Twilight of the Ottomans $23.99 H:$18.83 I:$20.45 26452
242 Pershing Pursues Pancho Villa Decision Games 2007-05-01 They Died with Their Boots On $23.99 E:$12.00 H:$14.66 I:$12.20 26453
Game 243 Sealords Decision Games 2007-06-01 Sealords $23.99 E:$9.00 H:$21.96 I:$21.11 26454
Game 244 Drive on Moscow Decision Games 2007-07-01 Drive on Moscow $39.99 E:$49.99 H:$25.50 I:$31.08 26455
Game 245 War of the Triple Alliance Decision Games 2007-09-01 War of the Triple Alliance $23.99 E:$24.99 H:$11.34 I:$11.75 26456
246 Manila, 1945 Decision Games 2007-11-01 Manila '45: Stalingrad of the Pacific $23.99 E:$5.50 H:$13.35 I:$11.80 26457
247 Holy Roman Empire Decision Games 2008-02-01 Holy Roman Empire $23.99 E:$19.00 H:$16.02 I:$14.85 26458
Game 249 Napoleon in Egypt Decision Games 2008-06-01 Egyptian Campaign/Russo-Swedish War $23.99 E:$24.99 H:$16.29 I:$20.00 26460
251 Patton Unleashed Decision Games 2008-07-01 Cobra $24.99 E:$70.50 H:$44.87 I:$34.06 26462
252 The New Mexico Campaign, 1862 Decision Games 2008-10-01 The New Mexico Campaign $24.99 E:$6.00 H:$12.95 I:$13.92 26463
253 The Battle of Kursk, 1943 Decision Games 2008-12-01 Drive on Kursk $24.99 E:$62.50 H:$25.04 I:$16.01 26464
254 Hannibal's War Decision Games 2009-02-01 Hannibal's War $24.99 E:$15.00 H:$21.04 I:$21.72 26465
255 First Battle of Britain Decision Games 2009-04-01 First Battle of Britain $24.99 E:$29.99 H:$18.80 I:$14.26 26466
256 RAF: The Battle of Britain, 1940 Decision Games 2009-06-01 Marlborough's Battles $24.99 H:$15.69 I:$15.00 26467
257 Chosin Decision Games 2009-08-01 Chosin $24.99 E:$4.99 H:$16.07 I:$17.40 26468
258 The Santiago Campaign Decision Games 2009-10-01 San Juan Hill $24.99 E:$15.00 H:$13.79 I:$13.03 26469
259 The Battle for China, 1937 Decision Games 2009-12-01 Battle for China $24.99 H:$13.78 26470
261 The Kaiser's War Decision Games 2010-04-01 The Kaiser's War E:$24.95 H:$16.34 I:$17.32 26574
262 Frederick the Great at War: 1740-48 Decision Games 2010-06-01 Frederick's War E:$42.00 H:$18.16 I:$12.99 26575
263 Wurzburg Pentomic Decision Games 2010-08-01 Cold War Battles 2 E:$12.50 H:$16.03 I:$15.57 26576
266 Julian Decision Games 2011-02-01 Julian: Triumph Before the Storm E:$38.00 H:$19.53 I:$21.11 26579
Game 268 When Lions Sailed Decision Games 2011-06-01 When Lions Sailed E:$9.00 H:$16.09 I:$19.92 26581
Game 270 American Revolution Decision Games 2011-10-01 The American Revolution E:$29.00 H:$22.56 I:$24.42 26583
271 Second Battle of Kharkov, 1942 Decision Games 2011-10-01 Second Kharkov E:$55.00 H:$12.65 I:$13.44 26584
272 Battle of Lepanto Decision Games 2012-02-01 Lepanto E:$12.30 H:$21.59 I:$23.51 26585
273 Reichswehr & Freikorps Decision Games 2012-04-01 Reichswehr & Freikorps E:$14.00 H:$13.43 I:$13.18 26586
Game 274 The Sun Never Sets Decision Games 2012-06-01 The Sun Never Sets: Volume II $49.99 E:$58.50 H:$33.99 I:$23.49 26587
275 Koniggratz Decision Games 2012-08-01 Koniggratz $29.99 E:$19.95 H:$22.51 I:$24.85 26588
Game 276 Operation Anaconda Decision Games 2012-10-01 Anaconda $29.99 E:$17.00 H:$13.27 I:$13.08 26589
Game 277 Ticonderoga Decision Games 2012-12-01 Ticonderoga $29.99 E:$24.99 H:$15.10 I:$12.50 26590
278 Tobruk Decision Games 2013-02-01 Tobruk $29.99 E:$16.50 H:$20.29 I:$20.67 26591
279 Reconquista Decision Games 2013-04-01 Reconquista $29.99 E:$33.99 H:$19.70 I:$15.70 26592
Game 280 Soldiers 1918 Decision Games 2013-06-01 Soldiers $29.99 E:$24.00 H:$16.80 I:$16.76 26593
281 In Country Decision Games 2013-08-01 In Country: Vietnam 1965-1975 $49.99 E:$98.50 H:$29.01 I:$30.53 26594
282 The War of the Pacific Decision Games 2013-10-01 War of the Pacific E:$8.20 H:$12.63 I:$16.76 26595
283 Fail Safe Decision Games 2013-12-01 Fail Safe E:$89.95 H:$23.76 I:$23.85 26596
284 Shenandoah Decision Games 2014-02-01 Jackson's Shenandoah Valley Campaign E:$27.99 H:$19.84 I:$17.51 26597
288 Hindenburg's War Decision Games 2014-10-01 Hindenburg's War $49.99 H:$27.24 I:$27.41 26601
Game 290 Angola Decision Games 2015-02-01 Angola E:$24.95 H:$14.71 I:$16.06 26603
291 Warpath Decision Games 2015-04-01 Warpath E:$35.00 H:$17.20 I:$16.40 26604
Game 292 North Cape Decision Games 2015-06-01 North Cape H:$21.60 I:$24.76 26605
293 1066 Decision Games 2015-08-01 1066: The Year of Three Battles E:$85.00 H:$43.40 I:$24.99 26606
Game 294 World War I Decision Games 2015-10-01 World War I $34.99 E:$9.99 H:$49.45 I:$46.29 26834
Game 296 Armies of the Korean War Decision Games 2016-02-01 Korean Battles $34.99 E:$70.00 H:$27.04 I:$13.73 35344
297 1863 Decision Games 2016-04-01 1863 $34.99 E:$28.00 H:$19.34 I:$20.29 90150
Game 298 Churchill's Balkan Gambit Decision Games 2016-06-01 Balkan Gambit $34.99 E:$36.00 H:$12.87 I:$13.94 94096
Game 300 The Rommel Factor Decision Games 2016-10-01 Desert Fox Deluxe $34.99 H:$25.29 I:$28.08 104751
Game 301 Kaiser's War in the East Decision Games 2016-12-01 Kaiser's War in the East $34.99 E:$38.00 H:$19.42 I:$19.86 111377
302 Great Northern War Decision Games 2017-02-01 Great Northern War $34.99 E:$19.99 H:$20.61 I:$21.65 116805
303 Yugoslavia Wars Decision Games 2017-04-01 War Returns to Europe: Yugoslavia 1991 $34.99 E:$24.95 H:$19.84 I:$19.35 121909
Game 304 The American Revolution in the South Decision Games 2017-06-01 The American Revolution in the South $34.99 E:$36.99 H:$20.50 I:$20.50 124773
306 Agricola Decision Games 2017-10-01 Agricola $34.99 E:$14.99 H:$21.41 I:$23.18 132297
307 Cold War Hot Armor Decision Games 2017-10-01 Cold War Hot Armor: Vietnam $34.99 E:$25.00 H:$23.74 I:$25.72 133700
Game 308 The War of Jenkins' Ear Decision Games 2018-02-01 The War of Jenkins' Ear $34.99 H:$22.94 138816
309 The War of Turkish Liberation Decision Games 2018-04-01 The War for Turkish Liberation $39.99 E:$34.95 H:$29.10 I:$27.75 141833
Game 310 American Civil War Decision Games 2018-06-01 American Civil War $39.99 E:$34.95 H:$34.48 I:$34.48 143812
Game 313 Windhoek Decision Games 2018-12-01 Windhoek $39.99 E:$8.00 H:$44.99 I:$30.00 147770
Game 314 Last Stand at Isandlwana Decision Games 2019-02-01 Last Stand at Isandlwana $39.99 E:$34.95 H:$33.66 I:$30.00 150673
Game 315 Red Tide South Decision Games 2019-03-01 Red Tide South $39.99 E:$30.00 H:$34.95 160045
Game 316 1777 Decision Games 2019-06-01 Campaigns of 1777 $39.99 E:$14.97 H:$34.40 159958
Game 317 Moscow 1941 Decision Games 2019-09-01 Moscow $39.99 E:$23.99 161513
Game 325 Italian-Ottoman War Decision Games 2020-12-01 The Lost Battalion $39.99 179496
Game 326 Mukden Decision Games 2021-02-01 Battle of Mukden $39.99 182294
Game 327 Russian Baltic War Decision Games 2021-04-01 Suwalki Gap $39.99 I:$39.99 184849